sensor_id;sensor_type;location;lat;lon;timestamp;temperature;humidity
52565;DHT22;38460;53.106;7.004;2023-07-13T00:01:28;16.10;99.90
52565;DHT22;38460;53.106;7.004;2023-07-13T00:03:54;16.00;99.90
52565;DHT22;38460;53.106;7.004;2023-07-13T00:06:20;16.00;99.90
52565;DHT22;38460;53.106;7.004;2023-07-13T00:08:46;15.90;99.90
52565;DHT22;38460;53.106;7.004;2023-07-13T00:11:15;15.90;99.90
52565;DHT22;38460;53.106;7.004;2023-07-13T00:13:41;15.80;99.90
52565;DHT22;38460;53.106;7.004;2023-07-13T00:16:09;15.70;99.90
52565;DHT22;38460;53.106;7.004;2023-07-13T00:18:35;15.70;99.90
52565;DHT22;38460;53.106;7.004;2023-07-13T00:21:01;15.70;99.90
52565;DHT22;38460;53.106;7.004;2023-07-13T00:23:35;15.60;99.90
52565;DHT22;38460;53.106;7.004;2023-07-13T00:26:03;15.60;99.90
52565;DHT22;38460;53.106;7.004;2023-07-13T00:28:29;15.60;99.90
52565;DHT22;38460;53.106;7.004;2023-07-13T00:30:57;15.50;99.90
52565;DHT22;38460;53.106;7.004;2023-07-13T00:33:23;15.50;99.90
52565;DHT22;38460;53.106;7.004;2023-07-13T00:35:49;15.50;99.90
52565;DHT22;38460;53.106;7.004;2023-07-13T00:38:15;15.40;99.90
52565;DHT22;38460;53.106;7.004;2023-07-13T00:40:42;15.40;99.90
52565;DHT22;38460;53.106;7.004;2023-07-13T00:43:17;15.40;99.90
52565;DHT22;38460;53.106;7.004;2023-07-13T00:48:31;15.40;99.90
52565;DHT22;38460;53.106;7.004;2023-07-13T00:50:59;15.40;99.90
52565;DHT22;38460;53.106;7.004;2023-07-13T00:53:28;15.40;99.90
52565;DHT22;38460;53.106;7.004;2023-07-13T00:55:56;15.40;99.90
52565;DHT22;38460;53.106;7.004;2023-07-13T00:58:24;15.30;99.90
52565;DHT22;38460;53.106;7.004;2023-07-13T01:00:51;15.30;99.90
52565;DHT22;38460;53.106;7.004;2023-07-13T01:03:17;15.30;99.90
52565;DHT22;38460;53.106;7.004;2023-07-13T01:05:43;15.40;99.90
52565;DHT22;38460;53.106;7.004;2023-07-13T01:08:09;15.30;99.90
52565;DHT22;38460;53.106;7.004;2023-07-13T01:10:35;15.30;99.90
52565;DHT22;38460;53.106;7.004;2023-07-13T01:13:10;15.40;99.90
52565;DHT22;38460;53.106;7.004;2023-07-13T01:15:44;15.40;99.90
52565;DHT22;38460;53.106;7.004;2023-07-13T01:18:13;15.40;99.90
52565;DHT22;38460;53.106;7.004;2023-07-13T01:20:40;15.40;99.90
52565;DHT22;38460;53.106;7.004;2023-07-13T01:23:09;15.50;99.90
52565;DHT22;38460;53.106;7.004;2023-07-13T01:25:36;15.40;99.90
52565;DHT22;38460;53.106;7.004;2023-07-13T01:28:04;15.50;99.90
52565;DHT22;38460;53.106;7.004;2023-07-13T01:30:30;15.50;99.90
52565;DHT22;38460;53.106;7.004;2023-07-13T01:32:57;15.50;99.90
52565;DHT22;38460;53.106;7.004;2023-07-13T01:35:23;15.50;99.90
52565;DHT22;38460;53.106;7.004;2023-07-13T01:37:51;15.50;99.90
52565;DHT22;38460;53.106;7.004;2023-07-13T01:40:17;15.50;99.90
52565;DHT22;38460;53.106;7.004;2023-07-13T01:42:43;15.40;99.90
52565;DHT22;38460;53.106;7.004;2023-07-13T01:45:09;15.50;99.90
52565;DHT22;38460;53.106;7.004;2023-07-13T01:47:34;15.50;99.90
52565;DHT22;38460;53.106;7.004;2023-07-13T01:50:00;15.50;99.90
52565;DHT22;38460;53.106;7.004;2023-07-13T01:52:26;15.50;99.90
52565;DHT22;38460;53.106;7.004;2023-07-13T01:54:56;15.50;99.90
52565;DHT22;38460;53.106;7.004;2023-07-13T01:57:24;15.50;99.90
52565;DHT22;38460;53.106;7.004;2023-07-13T01:59:50;15.40;99.90
52565;DHT22;38460;53.106;7.004;2023-07-13T02:02:15;15.50;99.90
52565;DHT22;38460;53.106;7.004;2023-07-13T02:04:41;15.50;99.90
52565;DHT22;38460;53.106;7.004;2023-07-13T02:07:08;15.50;99.90
52565;DHT22;38460;53.106;7.004;2023-07-13T02:09:35;15.30;99.90
52565;DHT22;38460;53.106;7.004;2023-07-13T02:12:01;15.50;99.90
52565;DHT22;38460;53.106;7.004;2023-07-13T02:14:26;15.50;99.90
52565;DHT22;38460;53.106;7.004;2023-07-13T02:16:52;15.50;99.90
52565;DHT22;38460;53.106;7.004;2023-07-13T02:19:18;15.50;99.90
52565;DHT22;38460;53.106;7.004;2023-07-13T02:21:44;15.60;99.90
52565;DHT22;38460;53.106;7.004;2023-07-13T02:24:09;15.60;99.90
52565;DHT22;38460;53.106;7.004;2023-07-13T02:26:40;15.60;99.90
52565;DHT22;38460;53.106;7.004;2023-07-13T02:29:06;15.60;99.90
52565;DHT22;38460;53.106;7.004;2023-07-13T02:31:31;15.60;99.90
52565;DHT22;38460;53.106;7.004;2023-07-13T02:33:57;15.60;99.90
52565;DHT22;38460;53.106;7.004;2023-07-13T02:36:23;15.60;99.90
52565;DHT22;38460;53.106;7.004;2023-07-13T02:38:49;15.70;99.90
52565;DHT22;38460;53.106;7.004;2023-07-13T02:41:15;15.70;99.90
52565;DHT22;38460;53.106;7.004;2023-07-13T02:43:41;15.70;99.90
52565;DHT22;38460;53.106;7.004;2023-07-13T02:46:07;15.70;99.90
52565;DHT22;38460;53.106;7.004;2023-07-13T02:48:37;15.70;99.90
52565;DHT22;38460;53.106;7.004;2023-07-13T02:51:03;15.70;99.90
52565;DHT22;38460;53.106;7.004;2023-07-13T02:53:29;15.70;99.90
52565;DHT22;38460;53.106;7.004;2023-07-13T02:55:55;15.80;99.90
52565;DHT22;38460;53.106;7.004;2023-07-13T02:58:21;15.70;99.90
52565;DHT22;38460;53.106;7.004;2023-07-13T03:00:47;15.80;99.90
52565;DHT22;38460;53.106;7.004;2023-07-13T03:03:14;15.80;99.90
52565;DHT22;38460;53.106;7.004;2023-07-13T03:05:41;15.80;99.90
52565;DHT22;38460;53.106;7.004;2023-07-13T03:08:08;15.80;99.90
52565;DHT22;38460;53.106;7.004;2023-07-13T03:10:34;15.80;99.90
52565;DHT22;38460;53.106;7.004;2023-07-13T03:13:00;15.80;99.90
52565;DHT22;38460;53.106;7.004;2023-07-13T03:15:27;15.80;99.90
52565;DHT22;38460;53.106;7.004;2023-07-13T03:17:54;15.80;99.90
52565;DHT22;38460;53.106;7.004;2023-07-13T03:20:19;15.80;99.90
52565;DHT22;38460;53.106;7.004;2023-07-13T03:22:45;15.80;99.90
52565;DHT22;38460;53.106;7.004;2023-07-13T03:25:12;15.80;99.90
52565;DHT22;38460;53.106;7.004;2023-07-13T03:27:38;15.80;99.90
52565;DHT22;38460;53.106;7.004;2023-07-13T03:30:05;15.80;99.90
52565;DHT22;38460;53.106;7.004;2023-07-13T03:32:31;15.80;99.90
52565;DHT22;38460;53.106;7.004;2023-07-13T03:34:57;15.80;99.90
52565;DHT22;38460;53.106;7.004;2023-07-13T03:37:22;15.80;99.90
52565;DHT22;38460;53.106;7.004;2023-07-13T03:39:49;15.80;99.90
52565;DHT22;38460;53.106;7.004;2023-07-13T03:42:15;15.80;99.90
52565;DHT22;38460;53.106;7.004;2023-07-13T03:44:41;15.80;99.90
52565;DHT22;38460;53.106;7.004;2023-07-13T03:47:07;15.80;99.90
52565;DHT22;38460;53.106;7.004;2023-07-13T03:49:34;15.80;99.90
52565;DHT22;38460;53.106;7.004;2023-07-13T03:52:01;15.70;99.90
52565;DHT22;38460;53.106;7.004;2023-07-13T03:54:27;15.80;99.90
52565;DHT22;38460;53.106;7.004;2023-07-13T03:56:53;15.70;99.90
52565;DHT22;38460;53.106;7.004;2023-07-13T03:59:19;15.80;99.90
52565;DHT22;38460;53.106;7.004;2023-07-13T04:01:45;15.80;99.90
52565;DHT22;38460;53.106;7.004;2023-07-13T04:04:10;15.80;99.90
52565;DHT22;38460;53.106;7.004;2023-07-13T04:06:37;15.80;99.90
52565;DHT22;38460;53.106;7.004;2023-07-13T04:09:03;15.80;99.90
52565;DHT22;38460;53.106;7.004;2023-07-13T04:11:32;15.80;99.90
52565;DHT22;38460;53.106;7.004;2023-07-13T04:13:58;15.80;99.90
52565;DHT22;38460;53.106;7.004;2023-07-13T04:16:24;15.50;99.90
52565;DHT22;38460;53.106;7.004;2023-07-13T04:18:50;15.80;99.90
52565;DHT22;38460;53.106;7.004;2023-07-13T04:21:20;15.80;99.90
52565;DHT22;38460;53.106;7.004;2023-07-13T04:23:46;15.70;99.90
52565;DHT22;38460;53.106;7.004;2023-07-13T04:26:11;15.70;99.90
52565;DHT22;38460;53.106;7.004;2023-07-13T04:28:37;15.80;99.90
52565;DHT22;38460;53.106;7.004;2023-07-13T04:31:03;15.80;99.90
52565;DHT22;38460;53.106;7.004;2023-07-13T04:33:29;15.80;99.90
52565;DHT22;38460;53.106;7.004;2023-07-13T04:35:55;15.80;99.90
52565;DHT22;38460;53.106;7.004;2023-07-13T04:38:26;15.80;99.90
52565;DHT22;38460;53.106;7.004;2023-07-13T04:40:55;15.90;99.90
52565;DHT22;38460;53.106;7.004;2023-07-13T04:43:22;15.90;99.90
52565;DHT22;38460;53.106;7.004;2023-07-13T04:45:47;15.90;99.90
52565;DHT22;38460;53.106;7.004;2023-07-13T04:48:13;15.90;99.90
52565;DHT22;38460;53.106;7.004;2023-07-13T04:50:39;15.90;99.90
52565;DHT22;38460;53.106;7.004;2023-07-13T04:53:05;15.90;99.90
52565;DHT22;38460;53.106;7.004;2023-07-13T04:55:32;15.80;99.90
52565;DHT22;38460;53.106;7.004;2023-07-13T04:57:58;15.80;99.90
52565;DHT22;38460;53.106;7.004;2023-07-13T05:00:25;15.80;99.90
52565;DHT22;38460;53.106;7.004;2023-07-13T05:02:51;15.80;99.90
52565;DHT22;38460;53.106;7.004;2023-07-13T05:05:17;15.80;99.90
52565;DHT22;38460;53.106;7.004;2023-07-13T05:07:43;15.80;99.90
52565;DHT22;38460;53.106;7.004;2023-07-13T05:10:09;15.80;99.90
52565;DHT22;38460;53.106;7.004;2023-07-13T05:12:35;15.80;99.90
52565;DHT22;38460;53.106;7.004;2023-07-13T05:15:01;15.80;99.90
52565;DHT22;38460;53.106;7.004;2023-07-13T05:17:27;15.80;99.90
52565;DHT22;38460;53.106;7.004;2023-07-13T05:19:53;15.80;99.90
52565;DHT22;38460;53.106;7.004;2023-07-13T05:22:19;15.90;99.90
52565;DHT22;38460;53.106;7.004;2023-07-13T05:24:46;15.90;99.90
52565;DHT22;38460;53.106;7.004;2023-07-13T05:27:11;15.90;99.90
52565;DHT22;38460;53.106;7.004;2023-07-13T05:29:37;15.90;99.90
52565;DHT22;38460;53.106;7.004;2023-07-13T05:32:06;16.00;99.90
52565;DHT22;38460;53.106;7.004;2023-07-13T05:34:32;16.00;99.90
52565;DHT22;38460;53.106;7.004;2023-07-13T05:36:58;16.00;99.90
52565;DHT22;38460;53.106;7.004;2023-07-13T05:39:24;16.00;99.90
52565;DHT22;38460;53.106;7.004;2023-07-13T05:41:50;16.10;99.90
52565;DHT22;38460;53.106;7.004;2023-07-13T05:44:16;16.10;99.90
52565;DHT22;38460;53.106;7.004;2023-07-13T05:46:41;16.20;99.90
52565;DHT22;38460;53.106;7.004;2023-07-13T05:49:07;16.20;99.90
52565;DHT22;38460;53.106;7.004;2023-07-13T05:51:33;16.30;99.90
52565;DHT22;38460;53.106;7.004;2023-07-13T05:53:58;16.30;99.90
52565;DHT22;38460;53.106;7.004;2023-07-13T05:56:24;16.30;99.90
52565;DHT22;38460;53.106;7.004;2023-07-13T05:58:52;16.40;99.90
52565;DHT22;38460;53.106;7.004;2023-07-13T06:01:17;16.40;99.90
52565;DHT22;38460;53.106;7.004;2023-07-13T06:03:46;16.40;99.90
52565;DHT22;38460;53.106;7.004;2023-07-13T06:06:12;16.50;99.90
52565;DHT22;38460;53.106;7.004;2023-07-13T06:08:38;16.50;99.90
52565;DHT22;38460;53.106;7.004;2023-07-13T06:11:15;16.60;99.90
52565;DHT22;38460;53.106;7.004;2023-07-13T06:13:41;16.60;99.90
52565;DHT22;38460;53.106;7.004;2023-07-13T06:16:06;16.70;99.90
52565;DHT22;38460;53.106;7.004;2023-07-13T06:18:34;16.70;99.90
52565;DHT22;38460;53.106;7.004;2023-07-13T06:23:33;16.80;99.90
52565;DHT22;38460;53.106;7.004;2023-07-13T06:25:58;16.90;99.90
52565;DHT22;38460;53.106;7.004;2023-07-13T06:28:24;16.90;99.90
52565;DHT22;38460;53.106;7.004;2023-07-13T06:30:50;17.00;99.90
52565;DHT22;38460;53.106;7.004;2023-07-13T06:33:16;17.00;99.90
52565;DHT22;38460;53.106;7.004;2023-07-13T06:35:42;17.00;99.90
52565;DHT22;38460;53.106;7.004;2023-07-13T06:38:08;17.10;99.90
52565;DHT22;38460;53.106;7.004;2023-07-13T06:40:34;17.10;99.90
52565;DHT22;38460;53.106;7.004;2023-07-13T06:42:59;17.20;99.90
52565;DHT22;38460;53.106;7.004;2023-07-13T06:45:25;17.30;99.90
52565;DHT22;38460;53.106;7.004;2023-07-13T06:47:51;17.30;99.90
52565;DHT22;38460;53.106;7.004;2023-07-13T06:50:19;17.40;99.90
52565;DHT22;38460;53.106;7.004;2023-07-13T06:52:45;17.40;99.90
52565;DHT22;38460;53.106;7.004;2023-07-13T06:55:11;17.40;99.90
52565;DHT22;38460;53.106;7.004;2023-07-13T06:57:36;17.50;99.90
52565;DHT22;38460;53.106;7.004;2023-07-13T07:00:02;17.50;99.90
52565;DHT22;38460;53.106;7.004;2023-07-13T07:02:28;17.60;99.90
52565;DHT22;38460;53.106;7.004;2023-07-13T07:04:54;17.60;99.90
52565;DHT22;38460;53.106;7.004;2023-07-13T07:07:20;17.70;99.90
52565;DHT22;38460;53.106;7.004;2023-07-13T07:09:48;17.80;99.90
52565;DHT22;38460;53.106;7.004;2023-07-13T07:12:14;17.80;99.90
52565;DHT22;38460;53.106;7.004;2023-07-13T07:14:40;17.90;99.90
52565;DHT22;38460;53.106;7.004;2023-07-13T07:17:05;17.90;99.90
52565;DHT22;38460;53.106;7.004;2023-07-13T07:19:31;18.00;99.90
52565;DHT22;38460;53.106;7.004;2023-07-13T07:22:00;18.10;99.90
52565;DHT22;38460;53.106;7.004;2023-07-13T07:24:25;18.10;99.90
52565;DHT22;38460;53.106;7.004;2023-07-13T07:26:52;18.20;99.90
52565;DHT22;38460;53.106;7.004;2023-07-13T07:29:17;18.30;99.90
52565;DHT22;38460;53.106;7.004;2023-07-13T07:31:43;18.40;99.90
52565;DHT22;38460;53.106;7.004;2023-07-13T07:34:09;18.40;99.90
52565;DHT22;38460;53.106;7.004;2023-07-13T07:36:34;18.50;99.90
52565;DHT22;38460;53.106;7.004;2023-07-13T07:39:00;18.60;99.90
52565;DHT22;38460;53.106;7.004;2023-07-13T07:41:26;18.60;99.90
52565;DHT22;38460;53.106;7.004;2023-07-13T07:43:51;18.60;99.90
52565;DHT22;38460;53.106;7.004;2023-07-13T07:46:17;18.70;99.90
52565;DHT22;38460;53.106;7.004;2023-07-13T07:48:43;18.80;99.90
52565;DHT22;38460;53.106;7.004;2023-07-13T07:51:09;18.90;99.90
52565;DHT22;38460;53.106;7.004;2023-07-13T07:53:34;18.90;99.90
52565;DHT22;38460;53.106;7.004;2023-07-13T07:56:00;18.90;99.90
52565;DHT22;38460;53.106;7.004;2023-07-13T07:58:26;18.80;99.90
52565;DHT22;38460;53.106;7.004;2023-07-13T08:00:51;18.80;99.90
52565;DHT22;38460;53.106;7.004;2023-07-13T08:03:17;18.80;99.90
52565;DHT22;38460;53.106;7.004;2023-07-13T08:05:43;18.80;99.90
52565;DHT22;38460;53.106;7.004;2023-07-13T08:08:08;18.80;99.90
52565;DHT22;38460;53.106;7.004;2023-07-13T08:10:35;18.80;99.90
52565;DHT22;38460;53.106;7.004;2023-07-13T08:13:02;18.80;99.90
52565;DHT22;38460;53.106;7.004;2023-07-13T08:15:28;18.80;99.90
52565;DHT22;38460;53.106;7.004;2023-07-13T08:17:54;18.90;99.90
52565;DHT22;38460;53.106;7.004;2023-07-13T08:20:20;19.00;99.90
52565;DHT22;38460;53.106;7.004;2023-07-13T08:22:46;19.00;99.90
52565;DHT22;38460;53.106;7.004;2023-07-13T08:25:12;19.00;99.90
52565;DHT22;38460;53.106;7.004;2023-07-13T08:27:37;19.00;99.90
52565;DHT22;38460;53.106;7.004;2023-07-13T08:30:04;19.00;99.90
52565;DHT22;38460;53.106;7.004;2023-07-13T08:32:31;18.90;99.90
52565;DHT22;38460;53.106;7.004;2023-07-13T08:34:58;18.90;99.90
52565;DHT22;38460;53.106;7.004;2023-07-13T08:37:30;18.80;99.90
52565;DHT22;38460;53.106;7.004;2023-07-13T08:39:56;18.60;99.90
52565;DHT22;38460;53.106;7.004;2023-07-13T08:47:40;18.10;99.90
52565;DHT22;38460;53.106;7.004;2023-07-13T08:50:13;18.10;99.90
52565;DHT22;38460;53.106;7.004;2023-07-13T08:52:41;18.00;99.90
52565;DHT22;38460;53.106;7.004;2023-07-13T08:55:15;17.90;99.90
52565;DHT22;38460;53.106;7.004;2023-07-13T08:57:42;17.80;99.90
52565;DHT22;38460;53.106;7.004;2023-07-13T09:00:12;17.70;99.90
52565;DHT22;38460;53.106;7.004;2023-07-13T09:02:56;17.70;99.90
52565;DHT22;38460;53.106;7.004;2023-07-13T09:05:22;17.50;99.90
52565;DHT22;38460;53.106;7.004;2023-07-13T09:10:46;17.30;99.90
52565;DHT22;38460;53.106;7.004;2023-07-13T09:15:44;17.20;99.90
52565;DHT22;38460;53.106;7.004;2023-07-13T09:20:54;17.10;99.90
52565;DHT22;38460;53.106;7.004;2023-07-13T09:23:23;16.90;99.90
52565;DHT22;38460;53.106;7.004;2023-07-13T09:25:54;16.70;99.90
52565;DHT22;38460;53.106;7.004;2023-07-13T09:28:27;16.50;99.90
52565;DHT22;38460;53.106;7.004;2023-07-13T09:31:10;16.40;99.90
52565;DHT22;38460;53.106;7.004;2023-07-13T09:33:38;16.40;99.90
52565;DHT22;38460;53.106;7.004;2023-07-13T09:36:32;16.30;99.90
52565;DHT22;38460;53.106;7.004;2023-07-13T09:39:10;16.30;99.90
52565;DHT22;38460;53.106;7.004;2023-07-13T09:44:49;16.30;99.90
52565;DHT22;38460;53.106;7.004;2023-07-13T09:47:18;16.40;99.90
52565;DHT22;38460;53.106;7.004;2023-07-13T09:49:44;16.40;99.90
52565;DHT22;38460;53.106;7.004;2023-07-13T09:52:15;16.50;99.90
52565;DHT22;38460;53.106;7.004;2023-07-13T09:54:51;16.00;99.90
52565;DHT22;38460;53.106;7.004;2023-07-13T09:57:23;16.60;99.90
52565;DHT22;38460;53.106;7.004;2023-07-13T09:59:51;16.60;99.90
52565;DHT22;38460;53.106;7.004;2023-07-13T10:02:27;16.60;99.90
52565;DHT22;38460;53.106;7.004;2023-07-13T10:05:14;16.70;99.90
52565;DHT22;38460;53.106;7.004;2023-07-13T10:07:45;16.80;99.90
52565;DHT22;38460;53.106;7.004;2023-07-13T10:10:16;16.80;99.90
52565;DHT22;38460;53.106;7.004;2023-07-13T10:12:44;16.90;99.90
52565;DHT22;38460;53.106;7.004;2023-07-13T10:15:16;17.00;99.90
52565;DHT22;38460;53.106;7.004;2023-07-13T10:17:43;17.10;99.90
52565;DHT22;38460;53.106;7.004;2023-07-13T10:20:10;17.20;99.90
52565;DHT22;38460;53.106;7.004;2023-07-13T10:22:51;17.30;99.90
52565;DHT22;38460;53.106;7.004;2023-07-13T10:25:21;17.50;99.90
52565;DHT22;38460;53.106;7.004;2023-07-13T10:27:53;17.70;99.90
52565;DHT22;38460;53.106;7.004;2023-07-13T10:32:46;17.80;99.90
52565;DHT22;38460;53.106;7.004;2023-07-13T10:35:14;17.80;99.90
52565;DHT22;38460;53.106;7.004;2023-07-13T10:37:53;17.80;99.90
52565;DHT22;38460;53.106;7.004;2023-07-13T10:40:36;17.70;99.90
52565;DHT22;38460;53.106;7.004;2023-07-13T10:43:09;17.70;99.90
52565;DHT22;38460;53.106;7.004;2023-07-13T10:45:39;17.70;99.90
52565;DHT22;38460;53.106;7.004;2023-07-13T10:48:06;17.70;99.90
52565;DHT22;38460;53.106;7.004;2023-07-13T10:50:38;17.70;99.90
52565;DHT22;38460;53.106;7.004;2023-07-13T10:53:21;17.70;99.90
52565;DHT22;38460;53.106;7.004;2023-07-13T10:58:34;17.80;99.90
52565;DHT22;38460;53.106;7.004;2023-07-13T11:03:30;17.90;99.90
52565;DHT22;38460;53.106;7.004;2023-07-13T11:10:57;18.30;99.90
52565;DHT22;38460;53.106;7.004;2023-07-13T11:16:37;18.80;99.90
52565;DHT22;38460;53.106;7.004;2023-07-13T11:21:32;18.20;99.90
52565;DHT22;38460;53.106;7.004;2023-07-13T11:24:18;18.20;99.90
52565;DHT22;38460;53.106;7.004;2023-07-13T11:31:55;18.70;99.90
52565;DHT22;38460;53.106;7.004;2023-07-13T11:34:38;18.80;99.90
52565;DHT22;38460;53.106;7.004;2023-07-13T11:37:11;18.90;99.90
52565;DHT22;38460;53.106;7.004;2023-07-13T11:39:42;19.00;99.90
52565;DHT22;38460;53.106;7.004;2023-07-13T11:42:15;19.20;99.90
52565;DHT22;38460;53.106;7.004;2023-07-13T11:44:47;19.30;99.90
52565;DHT22;38460;53.106;7.004;2023-07-13T11:47:22;19.40;99.90
52565;DHT22;38460;53.106;7.004;2023-07-13T11:49:51;19.60;99.90
52565;DHT22;38460;53.106;7.004;2023-07-13T11:52:21;19.70;99.90
52565;DHT22;38460;53.106;7.004;2023-07-13T11:54:57;19.80;99.90
52565;DHT22;38460;53.106;7.004;2023-07-13T11:57:32;19.90;99.90
52565;DHT22;38460;53.106;7.004;2023-07-13T12:00:14;20.00;99.90
52565;DHT22;38460;53.106;7.004;2023-07-13T12:02:43;20.10;99.90
52565;DHT22;38460;53.106;7.004;2023-07-13T12:05:15;20.10;99.90
52565;DHT22;38460;53.106;7.004;2023-07-13T12:07:41;20.10;99.90
52565;DHT22;38460;53.106;7.004;2023-07-13T12:10:27;20.00;99.90
52565;DHT22;38460;53.106;7.004;2023-07-13T12:13:02;19.90;99.90
52565;DHT22;38460;53.106;7.004;2023-07-13T12:15:48;19.90;99.90
52565;DHT22;38460;53.106;7.004;2023-07-13T12:18:18;20.00;99.90
52565;DHT22;38460;53.106;7.004;2023-07-13T12:20:45;20.00;99.90
52565;DHT22;38460;53.106;7.004;2023-07-13T12:23:29;20.00;99.90
52565;DHT22;38460;53.106;7.004;2023-07-13T12:26:01;20.00;99.90
52565;DHT22;38460;53.106;7.004;2023-07-13T12:28:34;20.10;99.90
52565;DHT22;38460;53.106;7.004;2023-07-13T12:31:02;20.30;99.90
52565;DHT22;38460;53.106;7.004;2023-07-13T12:33:30;20.50;99.90
52565;DHT22;38460;53.106;7.004;2023-07-13T12:36:01;20.50;99.90
52565;DHT22;38460;53.106;7.004;2023-07-13T12:38:31;20.40;99.90
52565;DHT22;38460;53.106;7.004;2023-07-13T12:40:57;20.40;99.90
52565;DHT22;38460;53.106;7.004;2023-07-13T12:43:24;20.40;99.90
52565;DHT22;38460;53.106;7.004;2023-07-13T12:46:24;20.60;99.90
52565;DHT22;38460;53.106;7.004;2023-07-13T12:48:54;20.90;99.90
52565;DHT22;38460;53.106;7.004;2023-07-13T12:51:25;21.00;99.90
52565;DHT22;38460;53.106;7.004;2023-07-13T12:53:56;21.10;99.90
52565;DHT22;38460;53.106;7.004;2023-07-13T12:56:26;21.00;99.90
52565;DHT22;38460;53.106;7.004;2023-07-13T12:59:00;20.80;99.90
52565;DHT22;38460;53.106;7.004;2023-07-13T13:01:28;20.80;99.90
52565;DHT22;38460;53.106;7.004;2023-07-13T13:03:54;21.00;99.90
52565;DHT22;38460;53.106;7.004;2023-07-13T13:06:33;21.20;99.90
52565;DHT22;38460;53.106;7.004;2023-07-13T13:09:02;21.20;99.90
52565;DHT22;38460;53.106;7.004;2023-07-13T13:11:34;21.20;99.90
52565;DHT22;38460;53.106;7.004;2023-07-13T13:14:03;21.20;99.90
52565;DHT22;38460;53.106;7.004;2023-07-13T13:16:31;21.20;99.90
52565;DHT22;38460;53.106;7.004;2023-07-13T13:19:10;21.40;99.90
52565;DHT22;38460;53.106;7.004;2023-07-13T13:21:37;21.70;99.90
52565;DHT22;38460;53.106;7.004;2023-07-13T13:24:12;21.70;99.90
52565;DHT22;38460;53.106;7.004;2023-07-13T13:26:38;21.70;99.90
52565;DHT22;38460;53.106;7.004;2023-07-13T13:29:34;21.80;99.90
52565;DHT22;38460;53.106;7.004;2023-07-13T13:32:01;22.00;99.90
52565;DHT22;38460;53.106;7.004;2023-07-13T13:34:27;22.20;99.90
52565;DHT22;38460;53.106;7.004;2023-07-13T13:36:54;22.30;99.90
52565;DHT22;38460;53.106;7.004;2023-07-13T13:39:24;22.30;99.90
52565;DHT22;38460;53.106;7.004;2023-07-13T13:41:51;22.50;99.90
52565;DHT22;38460;53.106;7.004;2023-07-13T13:44:19;22.70;99.90
52565;DHT22;38460;53.106;7.004;2023-07-13T13:46:49;22.50;99.90
52565;DHT22;38460;53.106;7.004;2023-07-13T13:49:19;22.40;99.90
52565;DHT22;38460;53.106;7.004;2023-07-13T13:51:48;22.20;99.90
52565;DHT22;38460;53.106;7.004;2023-07-13T13:54:19;22.30;99.90
52565;DHT22;38460;53.106;7.004;2023-07-13T13:56:51;22.50;99.90
52565;DHT22;38460;53.106;7.004;2023-07-13T13:59:17;22.60;99.90
52565;DHT22;38460;53.106;7.004;2023-07-13T14:01:45;22.30;99.90
52565;DHT22;38460;53.106;7.004;2023-07-13T14:04:22;22.40;99.90
52565;DHT22;38460;53.106;7.004;2023-07-13T14:06:57;22.50;99.90
52565;DHT22;38460;53.106;7.004;2023-07-13T14:09:23;22.50;99.70
52565;DHT22;38460;53.106;7.004;2023-07-13T14:11:50;22.40;99.00
52565;DHT22;38460;53.106;7.004;2023-07-13T14:14:20;22.60;99.30
52565;DHT22;38460;53.106;7.004;2023-07-13T14:16:51;22.70;99.40
52565;DHT22;38460;53.106;7.004;2023-07-13T14:19:24;22.60;99.30
52565;DHT22;38460;53.106;7.004;2023-07-13T14:21:50;22.70;99.50
52565;DHT22;38460;53.106;7.004;2023-07-13T14:24:21;22.80;99.50
52565;DHT22;38460;53.106;7.004;2023-07-13T14:26:47;22.70;99.20
52565;DHT22;38460;53.106;7.004;2023-07-13T14:29:18;22.70;98.80
52565;DHT22;38460;53.106;7.004;2023-07-13T14:31:44;22.90;98.90
52565;DHT22;38460;53.106;7.004;2023-07-13T14:34:11;23.00;97.70
52565;DHT22;38460;53.106;7.004;2023-07-13T14:36:40;23.10;98.80
52565;DHT22;38460;53.106;7.004;2023-07-13T14:39:16;23.20;98.20
52565;DHT22;38460;53.106;7.004;2023-07-13T14:41:43;23.10;98.50
52565;DHT22;38460;53.106;7.004;2023-07-13T14:44:17;22.90;98.80
52565;DHT22;38460;53.106;7.004;2023-07-13T14:46:45;22.50;98.60
52565;DHT22;38460;53.106;7.004;2023-07-13T14:49:30;22.40;98.90
52565;DHT22;38460;53.106;7.004;2023-07-13T14:51:59;22.50;99.20
52565;DHT22;38460;53.106;7.004;2023-07-13T14:54:26;22.70;99.20
52565;DHT22;38460;53.106;7.004;2023-07-13T14:56:52;22.90;99.20
52565;DHT22;38460;53.106;7.004;2023-07-13T14:59:18;23.10;98.90
52565;DHT22;38460;53.106;7.004;2023-07-13T15:01:45;23.10;98.80
52565;DHT22;38460;53.106;7.004;2023-07-13T15:04:11;23.20;98.50
52565;DHT22;38460;53.106;7.004;2023-07-13T15:07:00;23.40;98.60
52565;DHT22;38460;53.106;7.004;2023-07-13T15:09:28;23.40;98.30
52565;DHT22;38460;53.106;7.004;2023-07-13T15:11:55;23.30;98.30
52565;DHT22;38460;53.106;7.004;2023-07-13T15:14:22;23.00;98.30
52565;DHT22;38460;53.106;7.004;2023-07-13T15:16:49;23.00;98.00
52565;DHT22;38460;53.106;7.004;2023-07-13T15:19:17;23.10;98.10
52565;DHT22;38460;53.106;7.004;2023-07-13T15:21:45;23.30;97.90
52565;DHT22;38460;53.106;7.004;2023-07-13T15:24:11;23.20;97.80
52565;DHT22;38460;53.106;7.004;2023-07-13T15:26:38;23.20;97.80
52565;DHT22;38460;53.106;7.004;2023-07-13T15:29:05;23.20;96.60
52565;DHT22;38460;53.106;7.004;2023-07-13T15:31:32;23.30;97.70
52565;DHT22;38460;53.106;7.004;2023-07-13T15:34:03;23.50;96.80
52565;DHT22;38460;53.106;7.004;2023-07-13T15:36:30;23.60;96.70
52565;DHT22;38460;53.106;7.004;2023-07-13T15:38:55;23.40;96.50
52565;DHT22;38460;53.106;7.004;2023-07-13T15:41:24;23.30;96.90
52565;DHT22;38460;53.106;7.004;2023-07-13T15:43:51;23.50;97.30
52565;DHT22;38460;53.106;7.004;2023-07-13T15:46:23;23.80;97.30
52565;DHT22;38460;53.106;7.004;2023-07-13T15:48:50;23.80;96.80
52565;DHT22;38460;53.106;7.004;2023-07-13T15:51:26;23.40;96.60
52565;DHT22;38460;53.106;7.004;2023-07-13T15:53:59;23.30;96.00
52565;DHT22;38460;53.106;7.004;2023-07-13T15:56:29;23.20;96.30
52565;DHT22;38460;53.106;7.004;2023-07-13T15:58:56;23.30;96.50
52565;DHT22;38460;53.106;7.004;2023-07-13T16:01:23;23.50;96.70
52565;DHT22;38460;53.106;7.004;2023-07-13T16:03:50;23.70;96.50
52565;DHT22;38460;53.106;7.004;2023-07-13T16:06:22;23.90;96.50
52565;DHT22;38460;53.106;7.004;2023-07-13T16:08:50;23.90;93.40
52565;DHT22;38460;53.106;7.004;2023-07-13T16:11:19;24.00;95.10
52565;DHT22;38460;53.106;7.004;2023-07-13T16:13:53;24.00;94.70
52565;DHT22;38460;53.106;7.004;2023-07-13T16:16:22;24.10;94.80
52565;DHT22;38460;53.106;7.004;2023-07-13T16:18:52;24.20;95.00
52565;DHT22;38460;53.106;7.004;2023-07-13T16:21:23;24.20;94.70
52565;DHT22;38460;53.106;7.004;2023-07-13T16:23:50;24.40;95.10